sensor_id;sensor_type;location;lat;lon;timestamp;P1;durP1;ratioP1;P2;durP2;ratioP2
80113;SDS011;69422;45.662;18.992;2023-04-25T00:02:21;6.43;;;5.22;;
80113;SDS011;69422;45.662;18.992;2023-04-25T00:04:47;9.63;;;5.47;;
80113;SDS011;69422;45.662;18.992;2023-04-25T00:07:14;9.00;;;5.72;;
80113;SDS011;69422;45.662;18.992;2023-04-25T00:09:39;9.02;;;5.35;;
80113;SDS011;69422;45.662;18.992;2023-04-25T00:12:07;8.07;;;5.35;;
80113;SDS011;69422;45.662;18.992;2023-04-25T00:14:32;6.95;;;5.40;;
80113;SDS011;69422;45.662;18.992;2023-04-25T00:19:26;9.02;;;5.13;;
80113;SDS011;69422;45.662;18.992;2023-04-25T00:21:54;7.85;;;5.63;;
80113;SDS011;69422;45.662;18.992;2023-04-25T00:24:19;8.85;;;5.50;;
80113;SDS011;69422;45.662;18.992;2023-04-25T00:26:45;8.25;;;5.30;;
80113;SDS011;69422;45.662;18.992;2023-04-25T00:29:10;7.60;;;5.22;;
80113;SDS011;69422;45.662;18.992;2023-04-25T00:31:36;6.70;;;5.05;;
80113;SDS011;69422;45.662;18.992;2023-04-25T00:34:01;6.05;;;4.55;;
80113;SDS011;69422;45.662;18.992;2023-04-25T00:36:27;7.25;;;5.60;;
80113;SDS011;69422;45.662;18.992;2023-04-25T00:38:52;7.95;;;5.18;;
80113;SDS011;69422;45.662;18.992;2023-04-25T00:41:19;7.43;;;5.25;;
80113;SDS011;69422;45.662;18.992;2023-04-25T00:43:45;6.95;;;5.00;;
80113;SDS011;69422;45.662;18.992;2023-04-25T00:46:11;9.48;;;5.43;;
80113;SDS011;69422;45.662;18.992;2023-04-25T00:48:37;8.02;;;5.50;;
80113;SDS011;69422;45.662;18.992;2023-04-25T00:51:02;7.63;;;5.63;;
80113;SDS011;69422;45.662;18.992;2023-04-25T00:53:28;6.03;;;5.05;;
80113;SDS011;69422;45.662;18.992;2023-04-25T00:55:55;6.10;;;4.72;;
80113;SDS011;69422;45.662;18.992;2023-04-25T00:58:20;8.68;;;5.47;;
80113;SDS011;69422;45.662;18.992;2023-04-25T01:00:47;6.82;;;5.22;;
80113;SDS011;69422;45.662;18.992;2023-04-25T01:03:14;6.75;;;4.90;;
80113;SDS011;69422;45.662;18.992;2023-04-25T01:05:41;6.78;;;5.65;;
80113;SDS011;69422;45.662;18.992;2023-04-25T01:08:07;8.25;;;5.38;;
80113;SDS011;69422;45.662;18.992;2023-04-25T01:10:32;6.65;;;4.80;;
80113;SDS011;69422;45.662;18.992;2023-04-25T01:12:57;7.85;;;4.72;;
80113;SDS011;69422;45.662;18.992;2023-04-25T01:15:23;8.68;;;4.75;;
80113;SDS011;69422;45.662;18.992;2023-04-25T01:17:49;6.38;;;4.60;;
80113;SDS011;69422;45.662;18.992;2023-04-25T01:20:14;7.20;;;4.97;;
80113;SDS011;69422;45.662;18.992;2023-04-25T01:22:41;8.70;;;5.15;;
80113;SDS011;69422;45.662;18.992;2023-04-25T01:25:07;7.80;;;5.07;;
80113;SDS011;69422;45.662;18.992;2023-04-25T01:27:33;6.72;;;4.25;;
80113;SDS011;69422;45.662;18.992;2023-04-25T01:29:58;7.63;;;5.38;;
80113;SDS011;69422;45.662;18.992;2023-04-25T01:32:24;7.78;;;4.38;;
80113;SDS011;69422;45.662;18.992;2023-04-25T01:34:50;6.78;;;4.57;;
80113;SDS011;69422;45.662;18.992;2023-04-25T01:37:16;8.73;;;4.93;;
80113;SDS011;69422;45.662;18.992;2023-04-25T01:39:41;5.78;;;4.50;;
80113;SDS011;69422;45.662;18.992;2023-04-25T01:42:07;7.38;;;4.85;;
80113;SDS011;69422;45.662;18.992;2023-04-25T01:44:32;7.28;;;4.70;;
80113;SDS011;69422;45.662;18.992;2023-04-25T01:46:58;6.32;;;4.78;;
80113;SDS011;69422;45.662;18.992;2023-04-25T01:49:23;7.90;;;5.10;;
80113;SDS011;69422;45.662;18.992;2023-04-25T01:51:49;5.68;;;4.63;;
80113;SDS011;69422;45.662;18.992;2023-04-25T01:54:14;6.60;;;4.68;;
80113;SDS011;69422;45.662;18.992;2023-04-25T01:56:40;6.65;;;4.80;;
80113;SDS011;69422;45.662;18.992;2023-04-25T01:59:05;7.05;;;4.65;;
80113;SDS011;69422;45.662;18.992;2023-04-25T02:01:31;7.47;;;4.13;;
80113;SDS011;69422;45.662;18.992;2023-04-25T02:03:57;4.82;;;4.28;;
80113;SDS011;69422;45.662;18.992;2023-04-25T02:06:23;6.68;;;4.32;;
80113;SDS011;69422;45.662;18.992;2023-04-25T02:08:48;6.90;;;4.93;;
80113;SDS011;69422;45.662;18.992;2023-04-25T02:11:13;6.22;;;4.35;;
80113;SDS011;69422;45.662;18.992;2023-04-25T02:13:39;6.10;;;4.70;;
80113;SDS011;69422;45.662;18.992;2023-04-25T02:16:04;6.13;;;4.03;;
80113;SDS011;69422;45.662;18.992;2023-04-25T02:18:30;5.65;;;4.13;;
80113;SDS011;69422;45.662;18.992;2023-04-25T02:20:56;4.75;;;4.10;;
80113;SDS011;69422;45.662;18.992;2023-04-25T02:23:22;5.78;;;4.32;;
80113;SDS011;69422;45.662;18.992;2023-04-25T02:25:48;5.18;;;4.63;;
80113;SDS011;69422;45.662;18.992;2023-04-25T02:28:14;5.32;;;4.47;;
80113;SDS011;69422;45.662;18.992;2023-04-25T02:30:39;5.32;;;4.20;;
80113;SDS011;69422;45.662;18.992;2023-04-25T02:33:04;6.15;;;4.22;;
80113;SDS011;69422;45.662;18.992;2023-04-25T02:35:30;6.10;;;4.38;;
80113;SDS011;69422;45.662;18.992;2023-04-25T02:37:55;5.60;;;4.20;;
80113;SDS011;69422;45.662;18.992;2023-04-25T02:40:21;5.85;;;4.43;;
80113;SDS011;69422;45.662;18.992;2023-04-25T02:42:47;6.78;;;4.53;;
80113;SDS011;69422;45.662;18.992;2023-04-25T02:45:12;5.25;;;4.07;;
80113;SDS011;69422;45.662;18.992;2023-04-25T02:47:37;6.97;;;4.28;;
80113;SDS011;69422;45.662;18.992;2023-04-25T02:50:03;6.43;;;4.50;;
80113;SDS011;69422;45.662;18.992;2023-04-25T02:52:29;4.78;;;4.00;;
80113;SDS011;69422;45.662;18.992;2023-04-25T02:54:55;5.65;;;4.22;;
80113;SDS011;69422;45.662;18.992;2023-04-25T02:57:20;5.05;;;3.97;;
80113;SDS011;69422;45.662;18.992;2023-04-25T02:59:46;4.80;;;4.00;;
80113;SDS011;69422;45.662;18.992;2023-04-25T03:02:11;5.63;;;3.95;;
80113;SDS011;69422;45.662;18.992;2023-04-25T03:04:36;5.28;;;3.95;;
80113;SDS011;69422;45.662;18.992;2023-04-25T03:07:02;7.32;;;3.90;;
80113;SDS011;69422;45.662;18.992;2023-04-25T03:09:28;4.30;;;3.90;;
80113;SDS011;69422;45.662;18.992;2023-04-25T03:11:53;5.15;;;4.28;;
80113;SDS011;69422;45.662;18.992;2023-04-25T03:14:18;5.85;;;3.90;;
80113;SDS011;69422;45.662;18.992;2023-04-25T03:16:44;5.57;;;3.83;;
80113;SDS011;69422;45.662;18.992;2023-04-25T03:19:10;5.45;;;4.03;;
80113;SDS011;69422;45.662;18.992;2023-04-25T03:21:35;4.85;;;4.10;;
80113;SDS011;69422;45.662;18.992;2023-04-25T03:24:02;7.35;;;4.20;;
80113;SDS011;69422;45.662;18.992;2023-04-25T03:26:28;5.07;;;4.28;;
80113;SDS011;69422;45.662;18.992;2023-04-25T03:28:53;5.88;;;3.47;;
80113;SDS011;69422;45.662;18.992;2023-04-25T03:31:19;6.00;;;3.90;;
80113;SDS011;69422;45.662;18.992;2023-04-25T03:33:45;5.60;;;3.92;;
80113;SDS011;69422;45.662;18.992;2023-04-25T03:36:10;5.55;;;3.53;;
80113;SDS011;69422;45.662;18.992;2023-04-25T03:38:35;5.15;;;4.10;;
80113;SDS011;69422;45.662;18.992;2023-04-25T03:41:01;4.82;;;3.75;;
80113;SDS011;69422;45.662;18.992;2023-04-25T03:43:27;4.82;;;3.70;;
80113;SDS011;69422;45.662;18.992;2023-04-25T03:45:52;5.25;;;3.50;;
80113;SDS011;69422;45.662;18.992;2023-04-25T03:48:18;6.30;;;3.55;;
80113;SDS011;69422;45.662;18.992;2023-04-25T03:53:11;5.97;;;4.30;;
80113;SDS011;69422;45.662;18.992;2023-04-25T03:55:37;6.60;;;4.00;;
80113;SDS011;69422;45.662;18.992;2023-04-25T03:58:02;7.05;;;4.07;;
80113;SDS011;69422;45.662;18.992;2023-04-25T04:00:27;5.03;;;3.45;;
80113;SDS011;69422;45.662;18.992;2023-04-25T04:02:53;5.18;;;3.92;;
80113;SDS011;69422;45.662;18.992;2023-04-25T04:05:18;4.65;;;3.40;;
80113;SDS011;69422;45.662;18.992;2023-04-25T04:07:44;4.45;;;3.53;;
80113;SDS011;69422;45.662;18.992;2023-04-25T04:10:09;5.07;;;3.50;;
80113;SDS011;69422;45.662;18.992;2023-04-25T04:12:35;3.78;;;3.30;;
80113;SDS011;69422;45.662;18.992;2023-04-25T04:15:04;4.07;;;3.17;;
80113;SDS011;69422;45.662;18.992;2023-04-25T04:17:31;3.75;;;3.35;;
80113;SDS011;69422;45.662;18.992;2023-04-25T04:19:56;6.28;;;3.70;;
80113;SDS011;69422;45.662;18.992;2023-04-25T04:22:22;4.75;;;3.78;;
80113;SDS011;69422;45.662;18.992;2023-04-25T04:24:48;4.35;;;3.67;;
80113;SDS011;69422;45.662;18.992;2023-04-25T04:27:14;4.22;;;3.80;;
80113;SDS011;69422;45.662;18.992;2023-04-25T04:29:42;5.03;;;3.40;;
80113;SDS011;69422;45.662;18.992;2023-04-25T04:32:08;4.07;;;3.45;;
80113;SDS011;69422;45.662;18.992;2023-04-25T04:34:33;4.82;;;3.60;;
80113;SDS011;69422;45.662;18.992;2023-04-25T04:36:59;4.50;;;3.45;;
80113;SDS011;69422;45.662;18.992;2023-04-25T04:39:25;4.15;;;3.50;;
80113;SDS011;69422;45.662;18.992;2023-04-25T04:41:51;5.85;;;3.78;;
80113;SDS011;69422;45.662;18.992;2023-04-25T04:44:16;4.97;;;3.45;;
80113;SDS011;69422;45.662;18.992;2023-04-25T04:46:41;4.57;;;3.35;;
80113;SDS011;69422;45.662;18.992;2023-04-25T04:49:10;3.78;;;3.33;;
80113;SDS011;69422;45.662;18.992;2023-04-25T04:51:36;4.38;;;3.25;;
80113;SDS011;69422;45.662;18.992;2023-04-25T04:54:02;5.32;;;3.45;;
80113;SDS011;69422;45.662;18.992;2023-04-25T04:56:30;5.38;;;3.90;;
80113;SDS011;69422;45.662;18.992;2023-04-25T04:58:59;4.13;;;3.30;;
80113;SDS011;69422;45.662;18.992;2023-04-25T05:01:25;5.43;;;3.60;;
80113;SDS011;69422;45.662;18.992;2023-04-25T05:03:51;4.15;;;3.75;;
80113;SDS011;69422;45.662;18.992;2023-04-25T05:06:18;4.30;;;3.17;;
80113;SDS011;69422;45.662;18.992;2023-04-25T05:08:44;5.93;;;3.67;;
80113;SDS011;69422;45.662;18.992;2023-04-25T05:11:09;4.20;;;3.60;;
80113;SDS011;69422;45.662;18.992;2023-04-25T05:13:36;4.85;;;3.42;;
80113;SDS011;69422;45.662;18.992;2023-04-25T05:16:01;5.57;;;3.85;;
80113;SDS011;69422;45.662;18.992;2023-04-25T05:18:27;4.60;;;3.22;;
80113;SDS011;69422;45.662;18.992;2023-04-25T05:20:52;4.35;;;3.00;;
80113;SDS011;69422;45.662;18.992;2023-04-25T05:23:18;5.80;;;3.70;;
80113;SDS011;69422;45.662;18.992;2023-04-25T05:25:44;3.97;;;3.22;;
80113;SDS011;69422;45.662;18.992;2023-04-25T05:28:10;4.35;;;3.53;;
80113;SDS011;69422;45.662;18.992;2023-04-25T05:30:37;4.90;;;3.10;;
80113;SDS011;69422;45.662;18.992;2023-04-25T05:33:02;4.07;;;3.00;;
80113;SDS011;69422;45.662;18.992;2023-04-25T05:35:28;4.32;;;2.67;;
80113;SDS011;69422;45.662;18.992;2023-04-25T05:37:53;4.40;;;3.03;;
80113;SDS011;69422;45.662;18.992;2023-04-25T05:40:18;4.35;;;3.30;;
80113;SDS011;69422;45.662;18.992;2023-04-25T05:42:44;5.03;;;2.67;;
80113;SDS011;69422;45.662;18.992;2023-04-25T05:45:10;4.18;;;2.90;;
80113;SDS011;69422;45.662;18.992;2023-04-25T05:47:35;4.30;;;3.20;;
80113;SDS011;69422;45.662;18.992;2023-04-25T05:50:00;4.20;;;2.95;;
80113;SDS011;69422;45.662;18.992;2023-04-25T05:52:26;6.32;;;3.28;;
80113;SDS011;69422;45.662;18.992;2023-04-25T05:54:52;3.83;;;2.92;;
80113;SDS011;69422;45.662;18.992;2023-04-25T05:57:21;4.65;;;2.90;;
80113;SDS011;69422;45.662;18.992;2023-04-25T05:59:48;5.30;;;2.90;;
80113;SDS011;69422;45.662;18.992;2023-04-25T06:02:13;5.28;;;3.00;;
80113;SDS011;69422;45.662;18.992;2023-04-25T06:04:39;3.55;;;3.00;;
80113;SDS011;69422;45.662;18.992;2023-04-25T06:07:04;4.57;;;2.65;;
80113;SDS011;69422;45.662;18.992;2023-04-25T06:09:29;6.50;;;3.47;;
80113;SDS011;69422;45.662;18.992;2023-04-25T06:11:55;4.20;;;2.97;;
80113;SDS011;69422;45.662;18.992;2023-04-25T06:14:20;3.65;;;2.80;;
80113;SDS011;69422;45.662;18.992;2023-04-25T06:16:46;4.20;;;3.10;;
80113;SDS011;69422;45.662;18.992;2023-04-25T06:19:11;5.55;;;2.40;;
80113;SDS011;69422;45.662;18.992;2023-04-25T06:21:36;5.32;;;2.95;;
80113;SDS011;69422;45.662;18.992;2023-04-25T06:24:02;4.55;;;3.00;;
80113;SDS011;69422;45.662;18.992;2023-04-25T06:26:27;6.22;;;2.63;;
80113;SDS011;69422;45.662;18.992;2023-04-25T06:28:53;4.60;;;2.80;;
80113;SDS011;69422;45.662;18.992;2023-04-25T06:31:18;5.20;;;2.53;;
80113;SDS011;69422;45.662;18.992;2023-04-25T06:33:44;4.03;;;2.58;;
80113;SDS011;69422;45.662;18.992;2023-04-25T06:36:09;7.07;;;2.80;;
80113;SDS011;69422;45.662;18.992;2023-04-25T06:38:35;3.75;;;2.42;;
80113;SDS011;69422;45.662;18.992;2023-04-25T06:41:00;5.15;;;3.00;;
80113;SDS011;69422;45.662;18.992;2023-04-25T06:43:26;6.60;;;2.63;;
80113;SDS011;69422;45.662;18.992;2023-04-25T06:45:51;6.38;;;2.92;;
80113;SDS011;69422;45.662;18.992;2023-04-25T06:48:17;2.75;;;2.42;;
80113;SDS011;69422;45.662;18.992;2023-04-25T06:50:42;5.88;;;2.22;;
80113;SDS011;69422;45.662;18.992;2023-04-25T06:53:08;4.30;;;2.42;;
80113;SDS011;69422;45.662;18.992;2023-04-25T06:55:33;3.58;;;2.58;;
80113;SDS011;69422;45.662;18.992;2023-04-25T06:57:59;3.45;;;2.30;;
80113;SDS011;69422;45.662;18.992;2023-04-25T07:00:25;5.80;;;3.08;;
80113;SDS011;69422;45.662;18.992;2023-04-25T07:02:53;7.47;;;2.65;;
80113;SDS011;69422;45.662;18.992;2023-04-25T07:05:18;5.13;;;2.47;;
80113;SDS011;69422;45.662;18.992;2023-04-25T07:07:44;4.80;;;2.80;;
80113;SDS011;69422;45.662;18.992;2023-04-25T07:10:09;2.78;;;2.15;;
80113;SDS011;69422;45.662;18.992;2023-04-25T07:12:35;5.57;;;2.65;;
80113;SDS011;69422;45.662;18.992;2023-04-25T07:15:00;5.15;;;2.42;;
80113;SDS011;69422;45.662;18.992;2023-04-25T07:17:30;3.15;;;2.22;;
80113;SDS011;69422;45.662;18.992;2023-04-25T07:19:56;4.03;;;2.78;;
80113;SDS011;69422;45.662;18.992;2023-04-25T07:22:21;2.80;;;2.13;;
80113;SDS011;69422;45.662;18.992;2023-04-25T07:24:47;4.43;;;2.42;;
80113;SDS011;69422;45.662;18.992;2023-04-25T07:27:13;2.33;;;2.03;;
80113;SDS011;69422;45.662;18.992;2023-04-25T07:29:39;4.35;;;2.45;;
80113;SDS011;69422;45.662;18.992;2023-04-25T07:32:04;3.25;;;2.22;;
80113;SDS011;69422;45.662;18.992;2023-04-25T07:34:30;2.95;;;2.40;;
80113;SDS011;69422;45.662;18.992;2023-04-25T07:36:55;3.88;;;2.70;;
80113;SDS011;69422;45.662;18.992;2023-04-25T07:39:21;4.50;;;2.67;;
80113;SDS011;69422;45.662;18.992;2023-04-25T07:41:48;4.07;;;2.05;;
80113;SDS011;69422;45.662;18.992;2023-04-25T07:44:13;3.70;;;2.58;;
80113;SDS011;69422;45.662;18.992;2023-04-25T07:46:38;4.28;;;2.53;;
80113;SDS011;69422;45.662;18.992;2023-04-25T07:49:04;3.95;;;2.58;;
80113;SDS011;69422;45.662;18.992;2023-04-25T07:51:29;3.08;;;2.22;;
80113;SDS011;69422;45.662;18.992;2023-04-25T07:53:55;3.47;;;2.30;;
80113;SDS011;69422;45.662;18.992;2023-04-25T07:56:20;4.35;;;2.58;;
80113;SDS011;69422;45.662;18.992;2023-04-25T07:58:46;4.95;;;2.53;;
80113;SDS011;69422;45.662;18.992;2023-04-25T08:01:11;4.07;;;3.03;;
80113;SDS011;69422;45.662;18.992;2023-04-25T08:03:37;4.18;;;2.33;;
80113;SDS011;69422;45.662;18.992;2023-04-25T08:06:02;2.17;;;1.98;;
80113;SDS011;69422;45.662;18.992;2023-04-25T08:08:28;4.53;;;2.40;;
80113;SDS011;69422;45.662;18.992;2023-04-25T08:10:53;3.75;;;2.40;;
80113;SDS011;69422;45.662;18.992;2023-04-25T08:13:18;3.63;;;2.53;;
80113;SDS011;69422;45.662;18.992;2023-04-25T08:15:45;4.55;;;2.58;;
80113;SDS011;69422;45.662;18.992;2023-04-25T08:18:10;3.65;;;2.42;;
80113;SDS011;69422;45.662;18.992;2023-04-25T08:20:35;3.17;;;2.10;;
80113;SDS011;69422;45.662;18.992;2023-04-25T08:23:01;3.30;;;2.40;;
80113;SDS011;69422;45.662;18.992;2023-04-25T08:25:26;3.25;;;2.30;;
80113;SDS011;69422;45.662;18.992;2023-04-25T08:27:52;2.65;;;2.13;;
80113;SDS011;69422;45.662;18.992;2023-04-25T08:30:17;3.75;;;2.25;;
80113;SDS011;69422;45.662;18.992;2023-04-25T08:32:43;3.22;;;2.05;;
80113;SDS011;69422;45.662;18.992;2023-04-25T08:35:09;3.25;;;2.33;;
80113;SDS011;69422;45.662;18.992;2023-04-25T08:37:34;5.47;;;2.35;;
80113;SDS011;69422;45.662;18.992;2023-04-25T08:39:59;3.25;;;2.30;;
80113;SDS011;69422;45.662;18.992;2023-04-25T08:42:26;3.42;;;2.13;;
80113;SDS011;69422;45.662;18.992;2023-04-25T08:44:53;4.00;;;2.17;;
80113;SDS011;69422;45.662;18.992;2023-04-25T08:47:20;2.72;;;2.10;;
80113;SDS011;69422;45.662;18.992;2023-04-25T08:49:47;3.35;;;2.10;;
80113;SDS011;69422;45.662;18.992;2023-04-25T08:52:13;4.57;;;2.70;;
80113;SDS011;69422;45.662;18.992;2023-04-25T08:54:41;4.45;;;1.95;;
80113;SDS011;69422;45.662;18.992;2023-04-25T08:57:09;2.40;;;2.13;;
80113;SDS011;69422;45.662;18.992;2023-04-25T08:59:34;3.25;;;2.40;;
80113;SDS011;69422;45.662;18.992;2023-04-25T09:02:02;2.80;;;2.22;;
80113;SDS011;69422;45.662;18.992;2023-04-25T09:04:29;2.40;;;2.10;;
80113;SDS011;69422;45.662;18.992;2023-04-25T09:06:56;3.03;;;2.10;;
80113;SDS011;69422;45.662;18.992;2023-04-25T09:09:21;3.88;;;2.08;;
80113;SDS011;69422;45.662;18.992;2023-04-25T09:11:48;2.38;;;2.03;;
80113;SDS011;69422;45.662;18.992;2023-04-25T09:14:18;3.40;;;2.00;;
80113;SDS011;69422;45.662;18.992;2023-04-25T09:19:22;3.70;;;1.80;;
80113;SDS011;69422;45.662;18.992;2023-04-25T09:21:54;2.75;;;2.15;;
80113;SDS011;69422;45.662;18.992;2023-04-25T09:24:32;3.13;;;2.40;;
80113;SDS011;69422;45.662;18.992;2023-04-25T09:26:57;3.47;;;2.13;;
80113;SDS011;69422;45.662;18.992;2023-04-25T09:29:33;4.15;;;2.08;;
80113;SDS011;69422;45.662;18.992;2023-04-25T09:34:40;4.07;;;2.42;;
80113;SDS011;69422;45.662;18.992;2023-04-25T09:37:09;4.18;;;2.08;;
80113;SDS011;69422;45.662;18.992;2023-04-25T09:39:36;2.70;;;1.90;;
80113;SDS011;69422;45.662;18.992;2023-04-25T09:42:02;3.00;;;2.20;;
80113;SDS011;69422;45.662;18.992;2023-04-25T09:44:28;2.42;;;2.22;;
80113;SDS011;69422;45.662;18.992;2023-04-25T09:46:54;2.80;;;2.20;;
80113;SDS011;69422;45.662;18.992;2023-04-25T09:49:20;2.15;;;1.50;;
80113;SDS011;69422;45.662;18.992;2023-04-25T09:51:56;2.78;;;2.20;;
80113;SDS011;69422;45.662;18.992;2023-04-25T09:54:22;2.47;;;1.80;;
80113;SDS011;69422;45.662;18.992;2023-04-25T09:56:49;2.67;;;1.90;;
80113;SDS011;69422;45.662;18.992;2023-04-25T09:59:19;3.47;;;1.92;;
80113;SDS011;69422;45.662;18.992;2023-04-25T10:01:45;2.20;;;1.83;;
80113;SDS011;69422;45.662;18.992;2023-04-25T10:07:46;4.57;;;2.00;;
80113;SDS011;69422;45.662;18.992;2023-04-25T10:10:12;2.17;;;1.95;;
80113;SDS011;69422;45.662;18.992;2023-04-25T10:12:38;2.70;;;1.88;;
80113;SDS011;69422;45.662;18.992;2023-04-25T10:15:05;2.00;;;1.70;;
80113;SDS011;69422;45.662;18.992;2023-04-25T10:17:32;3.08;;;1.92;;
80113;SDS011;69422;45.662;18.992;2023-04-25T10:19:59;2.60;;;1.70;;
80113;SDS011;69422;45.662;18.992;2023-04-25T10:22:38;5.80;;;2.88;;
80113;SDS011;69422;45.662;18.992;2023-04-25T10:25:05;2.97;;;1.83;;
80113;SDS011;69422;45.662;18.992;2023-04-25T10:31:00;3.30;;;1.83;;
80113;SDS011;69422;45.662;18.992;2023-04-25T10:33:37;2.05;;;1.60;;
80113;SDS011;69422;45.662;18.992;2023-04-25T10:36:11;6.63;;;1.70;;
80113;SDS011;69422;45.662;18.992;2023-04-25T10:38:40;3.55;;;1.80;;
80113;SDS011;69422;45.662;18.992;2023-04-25T10:41:08;2.53;;;1.60;;
80113;SDS011;69422;45.662;18.992;2023-04-25T10:43:35;4.57;;;1.95;;
80113;SDS011;69422;45.662;18.992;2023-04-25T10:46:02;5.05;;;1.55;;
80113;SDS011;69422;45.662;18.992;2023-04-25T10:48:37;3.45;;;1.88;;
80113;SDS011;69422;45.662;18.992;2023-04-25T10:51:23;2.95;;;1.90;;
80113;SDS011;69422;45.662;18.992;2023-04-25T10:56:21;2.65;;;1.63;;
80113;SDS011;69422;45.662;18.992;2023-04-25T10:58:48;4.55;;;2.10;;
80113;SDS011;69422;45.662;18.992;2023-04-25T11:01:14;2.05;;;1.77;;
80113;SDS011;69422;45.662;18.992;2023-04-25T11:03:46;4.18;;;2.47;;
80113;SDS011;69422;45.662;18.992;2023-04-25T11:09:18;4.50;;;2.17;;
80113;SDS011;69422;45.662;18.992;2023-04-25T11:11:53;3.42;;;1.65;;
80113;SDS011;69422;45.662;18.992;2023-04-25T11:14:19;3.85;;;1.95;;
80113;SDS011;69422;45.662;18.992;2023-04-25T11:16:45;9.27;;;1.85;;
80113;SDS011;69422;45.662;18.992;2023-04-25T11:19:10;2.47;;;1.70;;
80113;SDS011;69422;45.662;18.992;2023-04-25T11:21:36;2.92;;;2.00;;
80113;SDS011;69422;45.662;18.992;2023-04-25T11:24:02;3.13;;;1.65;;
80113;SDS011;69422;45.662;18.992;2023-04-25T11:26:27;2.10;;;1.80;;
80113;SDS011;69422;45.662;18.992;2023-04-25T11:28:56;3.05;;;1.80;;
80113;SDS011;69422;45.662;18.992;2023-04-25T11:31:24;3.08;;;1.77;;
80113;SDS011;69422;45.662;18.992;2023-04-25T11:33:50;3.17;;;1.65;;
80113;SDS011;69422;45.662;18.992;2023-04-25T11:36:16;1.95;;;1.42;;
80113;SDS011;69422;45.662;18.992;2023-04-25T11:38:42;1.95;;;1.73;;
80113;SDS011;69422;45.662;18.992;2023-04-25T11:41:07;3.15;;;1.92;;
80113;SDS011;69422;45.662;18.992;2023-04-25T11:43:32;3.38;;;1.65;;
80113;SDS011;69422;45.662;18.992;2023-04-25T11:45:58;3.08;;;2.17;;
80113;SDS011;69422;45.662;18.992;2023-04-25T11:48:23;2.22;;;1.70;;
80113;SDS011;69422;45.662;18.992;2023-04-25T11:50:49;1.80;;;1.60;;
80113;SDS011;69422;45.662;18.992;2023-04-25T11:53:14;2.72;;;1.60;;
80113;SDS011;69422;45.662;18.992;2023-04-25T11:55:43;3.42;;;1.60;;
80113;SDS011;69422;45.662;18.992;2023-04-25T11:58:08;3.28;;;1.88;;
80113;SDS011;69422;45.662;18.992;2023-04-25T12:00:33;3.13;;;1.50;;
80113;SDS011;69422;45.662;18.992;2023-04-25T12:02:59;3.15;;;1.70;;
80113;SDS011;69422;45.662;18.992;2023-04-25T12:05:25;2.05;;;1.52;;
80113;SDS011;69422;45.662;18.992;2023-04-25T12:07:52;3.72;;;1.63;;
80113;SDS011;69422;45.662;18.992;2023-04-25T12:10:18;3.20;;;1.60;;
80113;SDS011;69422;45.662;18.992;2023-04-25T12:12:44;2.83;;;1.60;;
80113;SDS011;69422;45.662;18.992;2023-04-25T12:15:19;2.53;;;1.70;;
80113;SDS011;69422;45.662;18.992;2023-04-25T12:17:49;3.65;;;1.60;;
80113;SDS011;69422;45.662;18.992;2023-04-25T12:20:16;1.77;;;1.52;;
80113;SDS011;69422;45.662;18.992;2023-04-25T12:22:44;1.75;;;1.38;;
80113;SDS011;69422;45.662;18.992;2023-04-25T12:25:12;2.55;;;1.88;;
80113;SDS011;69422;45.662;18.992;2023-04-25T12:28:08;1.70;;;1.42;;
80113;SDS011;69422;45.662;18.992;2023-04-25T12:36:07;1.75;;;1.42;;
80113;SDS011;69422;45.662;18.992;2023-04-25T12:38:38;2.50;;;1.70;;
80113;SDS011;69422;45.662;18.992;2023-04-25T12:41:05;2.65;;;2.17;;
80113;SDS011;69422;45.662;18.992;2023-04-25T12:43:30;3.03;;;1.50;;
80113;SDS011;69422;45.662;18.992;2023-04-25T12:45:56;1.55;;;1.45;;
80113;SDS011;69422;45.662;18.992;2023-04-25T12:48:22;1.20;;;1.05;;
80113;SDS011;69422;45.662;18.992;2023-04-25T12:50:48;2.97;;;1.85;;
80113;SDS011;69422;45.662;18.992;2023-04-25T12:53:15;4.50;;;1.50;;
80113;SDS011;69422;45.662;18.992;2023-04-25T12:55:41;3.45;;;1.60;;
80113;SDS011;69422;45.662;18.992;2023-04-25T12:58:07;1.55;;;1.40;;
80113;SDS011;69422;45.662;18.992;2023-04-25T13:00:32;2.67;;;1.60;;
80113;SDS011;69422;45.662;18.992;2023-04-25T13:02:58;1.83;;;1.50;;
80113;SDS011;69422;45.662;18.992;2023-04-25T13:05:24;1.48;;;1.38;;
80113;SDS011;69422;45.662;18.992;2023-04-25T13:07:50;2.63;;;1.40;;
80113;SDS011;69422;45.662;18.992;2023-04-25T13:10:16;2.30;;;1.38;;
80113;SDS011;69422;45.662;18.992;2023-04-25T13:12:42;2.55;;;1.50;;
80113;SDS011;69422;45.662;18.992;2023-04-25T13:15:09;1.90;;;1.50;;
80113;SDS011;69422;45.662;18.992;2023-04-25T13:17:36;1.95;;;1.33;;
80113;SDS011;69422;45.662;18.992;2023-04-25T13:20:03;1.75;;;1.40;;
80113;SDS011;69422;45.662;18.992;2023-04-25T13:24:56;2.00;;;1.30;;
80113;SDS011;69422;45.662;18.992;2023-04-25T13:27:21;2.60;;;1.38;;
80113;SDS011;69422;45.662;18.992;2023-04-25T13:29:47;3.85;;;1.50;;
80113;SDS011;69422;45.662;18.992;2023-04-25T13:32:12;1.65;;;1.40;;
80113;SDS011;69422;45.662;18.992;2023-04-25T13:34:38;2.83;;;1.70;;
80113;SDS011;69422;45.662;18.992;2023-04-25T13:37:04;3.00;;;1.55;;
80113;SDS011;69422;45.662;18.992;2023-04-25T13:39:31;1.13;;;1.02;;
80113;SDS011;69422;45.662;18.992;2023-04-25T13:41:56;1.98;;;1.40;;
80113;SDS011;69422;45.662;18.992;2023-04-25T13:44:22;2.50;;;1.30;;
80113;SDS011;69422;45.662;18.992;2023-04-25T13:46:47;1.35;;;1.25;;
80113;SDS011;69422;45.662;18.992;2023-04-25T13:49:13;1.77;;;1.20;;
80113;SDS011;69422;45.662;18.992;2023-04-25T13:51:38;1.75;;;1.65;;
80113;SDS011;69422;45.662;18.992;2023-04-25T13:54:04;2.40;;;1.48;;
80113;SDS011;69422;45.662;18.992;2023-04-25T13:56:29;1.38;;;1.27;;
80113;SDS011;69422;45.662;18.992;2023-04-25T13:58:55;1.75;;;1.40;;
80113;SDS011;69422;45.662;18.992;2023-04-25T14:01:21;1.45;;;1.35;;
80113;SDS011;69422;45.662;18.992;2023-04-25T14:03:47;1.55;;;1.33;;
80113;SDS011;69422;45.662;18.992;2023-04-25T14:06:12;2.08;;;1.30;;
80113;SDS011;69422;45.662;18.992;2023-04-25T14:08:38;2.03;;;1.40;;
80113;SDS011;69422;45.662;18.992;2023-04-25T14:11:04;2.22;;;1.20;;
80113;SDS011;69422;45.662;18.992;2023-04-25T14:13:29;2.30;;;1.42;;
80113;SDS011;69422;45.662;18.992;2023-04-25T14:15:55;2.13;;;1.42;;
80113;SDS011;69422;45.662;18.992;2023-04-25T14:18:20;2.30;;;1.40;;
80113;SDS011;69422;45.662;18.992;2023-04-25T14:20:46;2.35;;;1.40;;
80113;SDS011;69422;45.662;18.992;2023-04-25T14:23:11;2.75;;;1.45;;
80113;SDS011;69422;45.662;18.992;2023-04-25T14:25:37;1.70;;;1.45;;
80113;SDS011;69422;45.662;18.992;2023-04-25T14:28:02;2.15;;;1.38;;
80113;SDS011;69422;45.662;18.992;2023-04-25T14:30:28;1.65;;;1.40;;
80113;SDS011;69422;45.662;18.992;2023-04-25T14:32:54;2.30;;;1.40;;
80113;SDS011;69422;45.662;18.992;2023-04-25T14:35:19;2.15;;;1.48;;
80113;SDS011;69422;45.662;18.992;2023-04-25T14:37:45;1.90;;;1.40;;
80113;SDS011;69422;45.662;18.992;2023-04-25T14:40:11;2.22;;;1.50;;
80113;SDS011;69422;45.662;18.992;2023-04-25T14:42:38;1.58;;;1.35;;
80113;SDS011;69422;45.662;18.992;2023-04-25T14:45:05;1.83;;;1.35;;
80113;SDS011;69422;45.662;18.992;2023-04-25T14:47:32;1.45;;;1.20;;
80113;SDS011;69422;45.662;18.992;2023-04-25T14:49:58;1.35;;;1.25;;
80113;SDS011;69422;45.662;18.992;2023-04-25T14:52:24;1.60;;;1.50;;
80113;SDS011;69422;45.662;18.992;2023-04-25T14:54:50;1.33;;;1.20;;
80113;SDS011;69422;45.662;18.992;2023-04-25T14:57:16;2.30;;;1.40;;
80113;SDS011;69422;45.662;18.992;2023-04-25T14:59:41;1.98;;;1.20;;